createdAt,value
2022-09-27T00:00:02.631Z,978.26
2022-09-27T00:01:02.651Z,978.23
2022-09-27T00:02:02.671Z,978.27
2022-09-27T00:03:02.635Z,978.22
2022-09-27T00:04:02.567Z,978.24
2022-09-27T00:05:02.557Z,978.24
2022-09-27T00:06:02.546Z,978.30
2022-09-27T00:07:02.539Z,978.26
2022-09-27T00:08:02.547Z,978.25
2022-09-27T00:09:02.517Z,978.28
2022-09-27T00:10:02.497Z,978.29
2022-09-27T00:11:02.487Z,978.22
2022-09-27T00:12:02.477Z,978.25
2022-09-27T00:13:02.469Z,978.20
2022-09-27T00:14:02.480Z,978.25
2022-09-27T00:15:03.215Z,978.23
2022-09-27T00:16:02.459Z,978.21
2022-09-27T00:17:02.425Z,978.16
2022-09-27T00:18:02.408Z,978.21
2022-09-27T00:19:02.397Z,978.24
2022-09-27T00:20:02.407Z,978.20
2022-09-27T00:21:02.377Z,978.19
2022-09-27T00:22:02.361Z,978.18
2022-09-27T00:23:02.357Z,978.20
2022-09-27T00:24:02.337Z,978.18
2022-09-27T00:25:02.326Z,978.14
2022-09-27T00:26:02.397Z,978.14
2022-09-27T00:27:02.306Z,978.13
2022-09-27T00:28:02.298Z,978.11
2022-09-27T00:29:02.286Z,978.14
2022-09-27T00:30:02.281Z,978.12
2022-09-27T00:31:02.352Z,978.06
2022-09-27T00:32:02.271Z,978.11
2022-09-27T00:33:02.238Z,978.09
2022-09-27T00:34:02.226Z,978.11
2022-09-27T00:35:02.223Z,978.06
2022-09-27T00:36:02.201Z,978.08
2022-09-27T00:37:02.215Z,978.05
2022-09-27T00:38:02.177Z,978.06
2022-09-27T00:39:02.168Z,978.04
2022-09-27T00:40:02.159Z,978.03
2022-09-27T00:41:02.219Z,978.03
2022-09-27T00:42:02.137Z,978.05
2022-09-27T00:43:02.151Z,978.03
2022-09-27T00:44:02.107Z,978.01
2022-09-27T00:45:02.097Z,977.98
2022-09-27T00:46:02.144Z,978.01
2022-09-27T00:47:02.081Z,978.06
2022-09-27T00:48:02.070Z,978.01
2022-09-27T00:49:02.077Z,978.02
2022-09-27T00:50:02.049Z,977.98
2022-09-27T00:51:02.037Z,978.01
2022-09-27T00:52:02.018Z,977.95
2022-09-27T00:53:02.009Z,977.96
2022-09-27T00:54:01.996Z,978.02
2022-09-27T00:55:02.007Z,977.95
2022-09-27T00:56:01.968Z,977.99
2022-09-27T00:57:01.967Z,977.97
2022-09-27T00:58:01.952Z,977.90
2022-09-27T00:59:01.945Z,977.94
2022-09-27T01:00:01.981Z,977.93
2022-09-27T01:01:02.226Z,977.92
2022-09-27T01:02:01.905Z,977.94
2022-09-27T01:03:01.943Z,977.91
2022-09-27T01:04:01.878Z,977.89
2022-09-27T01:05:01.869Z,977.85
2022-09-27T01:06:01.862Z,977.87
2022-09-27T01:07:01.867Z,977.88
2022-09-27T01:08:01.828Z,977.86
2022-09-27T01:09:01.833Z,977.86
2022-09-27T01:10:01.811Z,977.87
2022-09-27T01:11:01.807Z,977.88
2022-09-27T01:12:01.809Z,977.86
2022-09-27T01:13:01.777Z,977.81
2022-09-27T01:14:01.769Z,977.86
2022-09-27T01:15:01.757Z,977.84
2022-09-27T01:16:01.794Z,977.91
2022-09-27T01:17:01.737Z,977.82
2022-09-27T01:18:01.742Z,977.80
2022-09-27T01:19:01.708Z,977.79
2022-09-27T01:20:01.697Z,977.78
2022-09-27T01:21:01.688Z,977.78
2022-09-27T01:22:01.677Z,977.77
2022-09-27T01:23:01.668Z,977.83
2022-09-27T01:24:01.669Z,977.85
2022-09-27T01:25:01.647Z,977.90
2022-09-27T01:26:01.629Z,977.96
2022-09-27T01:27:01.619Z,977.93
2022-09-27T01:28:01.608Z,977.95
2022-09-27T01:29:01.597Z,977.95
2022-09-27T01:30:01.599Z,977.95
2022-09-27T01:31:01.637Z,977.90
2022-09-27T01:32:01.560Z,977.88
2022-09-27T01:33:01.556Z,977.86
2022-09-27T01:34:01.541Z,977.85
2022-09-27T01:35:01.549Z,977.83
2022-09-27T01:36:01.517Z,977.90
2022-09-27T01:37:01.506Z,977.82
2022-09-27T01:38:01.487Z,977.83
2022-09-27T01:39:01.478Z,977.84
2022-09-27T01:40:01.471Z,977.81
2022-09-27T01:41:01.602Z,977.81
2022-09-27T01:42:01.439Z,977.80
2022-09-27T01:43:01.437Z,977.79
2022-09-27T01:44:01.420Z,977.79
2022-09-27T01:45:01.408Z,977.83
2022-09-27T01:46:01.481Z,977.83
2022-09-27T01:47:01.388Z,977.84
2022-09-27T01:48:01.372Z,977.77
2022-09-27T01:49:01.367Z,977.80
2022-09-27T01:50:01.347Z,977.77
2022-09-27T01:51:01.346Z,977.77
2022-09-27T01:52:01.348Z,977.81
2022-09-27T01:53:01.329Z,977.81
2022-09-27T01:54:01.311Z,977.85
2022-09-27T01:55:01.300Z,977.81
2022-09-27T01:56:01.277Z,977.82
2022-09-27T01:57:01.269Z,977.77
2022-09-27T01:58:01.278Z,977.80
2022-09-27T01:59:01.247Z,977.73
2022-09-27T02:00:01.238Z,977.77
2022-09-27T02:01:01.265Z,977.75
2022-09-27T02:02:01.218Z,977.81
2022-09-27T02:03:01.287Z,977.78
2022-09-27T02:04:01.198Z,977.77
2022-09-27T02:05:01.186Z,977.73
2022-09-27T02:06:01.168Z,977.76
2022-09-27T02:07:01.158Z,977.78
2022-09-27T02:08:01.147Z,977.73
2022-09-27T02:09:01.168Z,977.76
2022-09-27T02:10:01.166Z,977.76
2022-09-27T02:11:01.118Z,977.78
2022-09-27T02:12:01.099Z,977.70
2022-09-27T02:13:01.091Z,977.81
2022-09-27T02:14:01.079Z,977.76
2022-09-27T02:15:01.101Z,977.80
2022-09-27T02:16:01.099Z,977.84
2022-09-27T02:17:01.046Z,977.81
2022-09-27T02:18:01.031Z,977.82
2022-09-27T02:19:01.018Z,977.83
2022-09-27T02:20:01.010Z,977.85
2022-09-27T02:21:01.034Z,977.82
2022-09-27T02:22:00.989Z,977.77
2022-09-27T02:23:00.977Z,977.84
2022-09-27T02:24:00.966Z,977.85
2022-09-27T02:25:00.957Z,977.72
2022-09-27T02:26:00.948Z,977.81
2022-09-27T02:27:00.950Z,977.79
2022-09-27T02:28:00.918Z,977.80
2022-09-27T02:29:00.908Z,977.81
2022-09-27T02:30:00.898Z,977.83
2022-09-27T02:31:00.960Z,977.81
2022-09-27T02:32:00.880Z,977.84
2022-09-27T02:33:00.882Z,977.85
2022-09-27T02:34:00.859Z,977.84
2022-09-27T02:35:00.838Z,977.82
2022-09-27T02:36:00.831Z,977.87
2022-09-27T02:37:00.817Z,977.79
2022-09-27T02:38:00.808Z,977.79
2022-09-27T02:39:00.812Z,977.79
2022-09-27T02:40:00.782Z,977.80
2022-09-27T02:41:00.829Z,977.82
2022-09-27T02:42:00.760Z,977.82
2022-09-27T02:43:00.753Z,977.81
2022-09-27T02:44:00.740Z,977.86
2022-09-27T02:45:00.739Z,977.86
2022-09-27T02:46:00.782Z,977.82
2022-09-27T02:47:00.699Z,977.88
2022-09-27T02:48:00.689Z,977.83
2022-09-27T02:49:00.675Z,977.88
2022-09-27T02:50:00.690Z,977.87
2022-09-27T02:51:00.657Z,977.96
2022-09-27T02:52:00.647Z,977.93
2022-09-27T02:53:00.629Z,977.98
2022-09-27T02:54:00.628Z,977.99
2022-09-27T02:55:00.607Z,977.98
2022-09-27T02:56:00.618Z,977.96
2022-09-27T02:57:00.588Z,977.99
2022-09-27T02:58:00.590Z,977.99
2022-09-27T02:59:00.570Z,978.02
2022-09-27T03:00:00.565Z,978.00
2022-09-27T03:01:00.580Z,978.02
2022-09-27T03:02:00.749Z,978.06
2022-09-27T03:03:00.557Z,978.07
2022-09-27T03:04:00.509Z,978.04
2022-09-27T03:05:00.490Z,978.06
2022-09-27T03:06:00.490Z,978.03
2022-09-27T03:07:00.521Z,978.12
2022-09-27T03:08:00.460Z,978.11
2022-09-27T03:09:00.458Z,978.06
2022-09-27T03:10:07.484Z,978.05
2022-09-27T03:11:00.424Z,978.08
2022-09-27T03:12:00.416Z,978.08
2022-09-27T03:13:00.424Z,978.08
2022-09-27T03:14:09.158Z,978.09
2022-09-27T03:15:01.394Z,978.12
2022-09-27T03:16:01.701Z,978.14
2022-09-27T03:17:00.481Z,978.14
2022-09-27T03:18:00.346Z,978.17
2022-09-27T03:19:00.365Z,978.12
2022-09-27T03:20:00.330Z,978.15
2022-09-27T03:21:00.322Z,978.13
2022-09-27T03:22:00.313Z,978.18
2022-09-27T03:23:00.288Z,978.13
2022-09-27T03:24:00.296Z,978.20
2022-09-27T03:25:00.312Z,978.17
2022-09-27T03:26:00.261Z,978.16
2022-09-27T03:27:00.245Z,978.21
2022-09-27T03:28:00.235Z,978.28
2022-09-27T03:29:00.225Z,978.27
2022-09-27T03:30:00.222Z,978.27
2022-09-27T03:31:00.283Z,978.22
2022-09-27T03:32:00.227Z,978.26
2022-09-27T03:33:00.245Z,978.26
2022-09-27T03:34:00.165Z,978.28
2022-09-27T03:35:00.155Z,978.25
2022-09-27T03:36:00.145Z,978.27
2022-09-27T03:37:00.157Z,978.34
2022-09-27T03:38:00.115Z,978.32
2022-09-27T03:39:00.114Z,978.34
2022-09-27T03:40:00.138Z,978.35
2022-09-27T03:41:00.900Z,978.30
2022-09-27T03:42:00.097Z,978.37
2022-09-27T03:43:00.094Z,978.33
2022-09-27T03:44:00.069Z,978.29
2022-09-27T03:45:00.034Z,978.35
2022-09-27T03:46:00.086Z,978.36
2022-09-27T03:47:00.020Z,978.32
2022-09-27T03:48:00.007Z,978.38
2022-09-27T03:49:00.015Z,978.36
2022-09-27T03:49:59.985Z,978.39
2022-09-27T03:50:59.990Z,978.32
2022-09-27T03:51:59.976Z,978.33
2022-09-27T03:52:59.949Z,978.35
2022-09-27T03:53:59.936Z,978.33
2022-09-27T03:55:02.135Z,978.39
2022-09-27T03:55:59.921Z,978.33
2022-09-27T03:56:59.898Z,978.34
2022-09-27T03:57:59.893Z,978.35
2022-09-27T03:58:59.885Z,978.36
2022-09-27T03:59:59.898Z,978.33
2022-09-27T04:00:59.899Z,978.37
2022-09-27T04:01:59.849Z,978.35
2022-09-27T04:02:59.908Z,978.33
2022-09-27T04:03:59.835Z,978.35
2022-09-27T04:04:59.809Z,978.38
2022-09-27T04:05:59.816Z,978.37
2022-09-27T04:06:59.785Z,978.36
2022-09-27T04:07:59.776Z,978.33
2022-09-27T04:08:59.757Z,978.40
2022-09-27T04:09:59.755Z,978.40
2022-09-27T04:10:59.743Z,978.39
2022-09-27T04:11:59.747Z,978.39
2022-09-27T04:12:59.725Z,978.40
2022-09-27T04:13:59.708Z,978.46
2022-09-27T04:14:59.716Z,978.42
2022-09-27T04:15:59.714Z,978.42
2022-09-27T04:16:59.751Z,978.38
2022-09-27T04:17:59.668Z,978.41
2022-09-27T04:18:59.649Z,978.39
2022-09-27T04:19:59.634Z,978.38
2022-09-27T04:20:59.627Z,978.40
2022-09-27T04:21:59.614Z,978.43
2022-09-27T04:22:59.623Z,978.49
2022-09-27T04:23:59.595Z,978.46
2022-09-27T04:24:59.575Z,978.48
2022-09-27T04:25:59.565Z,978.50
2022-09-27T04:26:59.554Z,978.51
2022-09-27T04:27:59.545Z,978.49
2022-09-27T04:28:59.554Z,978.57
2022-09-27T04:29:59.525Z,978.49
2022-09-27T04:30:59.586Z,978.53
2022-09-27T04:31:59.505Z,978.58
2022-09-27T04:32:59.485Z,978.56
2022-09-27T04:33:59.476Z,978.69
2022-09-27T04:34:59.485Z,978.57
2022-09-27T04:35:59.455Z,978.65
2022-09-27T04:36:59.435Z,978.64
2022-09-27T04:37:59.435Z,978.69
2022-09-27T04:38:59.415Z,978.66
2022-09-27T04:39:59.407Z,978.69
2022-09-27T04:40:59.473Z,978.61
2022-09-27T04:41:59.386Z,978.70
2022-09-27T04:42:59.366Z,978.70
2022-09-27T04:43:59.635Z,978.73
2022-09-27T04:44:59.345Z,978.70
2022-09-27T04:45:59.375Z,978.71
2022-09-27T04:46:59.370Z,978.81
2022-09-27T04:47:59.315Z,978.76
2022-09-27T04:48:59.314Z,978.80
2022-09-27T04:49:59.295Z,978.86
2022-09-27T04:50:59.285Z,978.82
2022-09-27T04:51:59.273Z,978.95
2022-09-27T04:52:59.276Z,978.90
2022-09-27T04:53:59.245Z,978.93
2022-09-27T04:54:59.233Z,978.96
2022-09-27T04:55:59.225Z,978.99
2022-09-27T04:56:59.206Z,979.00
2022-09-27T04:57:59.215Z,979.05
2022-09-27T04:58:59.206Z,979.03
2022-09-27T04:59:59.194Z,979.01
2022-09-27T05:00:59.214Z,979.05
2022-09-27T05:01:59.155Z,979.01
2022-09-27T05:02:59.209Z,979.07
2022-09-27T05:03:59.135Z,979.07
2022-09-27T05:04:59.135Z,979.10
2022-09-27T05:05:59.105Z,979.08
2022-09-27T05:06:59.085Z,979.08
2022-09-27T05:07:59.085Z,979.09
2022-09-27T05:08:59.075Z,979.02
2022-09-27T05:09:59.064Z,979.13
2022-09-27T05:10:59.068Z,979.08
2022-09-27T05:11:59.036Z,979.14
2022-09-27T05:12:59.025Z,979.13
2022-09-27T05:13:59.015Z,979.21
2022-09-27T05:14:59.008Z,979.21
2022-09-27T05:15:59.065Z,979.19
2022-09-27T05:16:59.046Z,979.25
2022-09-27T05:17:58.986Z,979.22
2022-09-27T05:18:58.954Z,979.21
2022-09-27T05:19:58.945Z,979.19
2022-09-27T05:20:58.937Z,979.24
2022-09-27T05:21:58.930Z,979.26
2022-09-27T05:22:58.923Z,979.22
2022-09-27T05:23:58.904Z,979.26
2022-09-27T05:24:58.887Z,979.25
2022-09-27T05:25:58.876Z,979.24
2022-09-27T05:26:58.865Z,979.27
2022-09-27T05:27:58.876Z,979.23
2022-09-27T05:28:58.843Z,979.27
2022-09-27T05:29:58.835Z,979.30
2022-09-27T05:30:58.843Z,979.34
2022-09-27T05:31:58.805Z,979.27
2022-09-27T05:32:58.798Z,979.34
2022-09-27T05:33:58.804Z,979.34
2022-09-27T05:34:58.774Z,979.36
2022-09-27T05:35:58.765Z,979.38
2022-09-27T05:36:58.764Z,979.38
2022-09-27T05:37:58.748Z,979.38
2022-09-27T05:38:58.755Z,979.28
2022-09-27T05:39:58.725Z,979.39
2022-09-27T05:40:58.754Z,979.40
2022-09-27T05:41:58.695Z,979.38
2022-09-27T05:42:58.675Z,979.43
2022-09-27T05:43:58.675Z,979.39
2022-09-27T05:44:58.676Z,979.46
2022-09-27T05:45:58.716Z,979.50
2022-09-27T05:46:58.635Z,979.51
2022-09-27T05:47:58.625Z,979.55
2022-09-27T05:48:58.634Z,979.49
2022-09-27T05:49:58.625Z,979.51
2022-09-27T05:50:58.629Z,979.51
2022-09-27T05:51:58.590Z,979.53
2022-09-27T05:52:58.599Z,979.55
2022-09-27T05:53:58.600Z,979.56
2022-09-27T05:54:58.545Z,979.56
2022-09-27T05:55:58.595Z,979.59
2022-09-27T05:56:58.545Z,979.59
2022-09-27T05:57:58.531Z,979.59
2022-09-27T05:58:58.496Z,979.61
2022-09-27T05:59:58.508Z,979.62
2022-09-27T06:00:58.475Z,979.63
2022-09-27T06:01:58.573Z,979.68
2022-09-27T06:02:58.566Z,979.63
2022-09-27T06:03:58.477Z,979.61
2022-09-27T06:04:58.434Z,979.64
2022-09-27T06:05:58.435Z,979.69
2022-09-27T06:06:58.418Z,979.69
2022-09-27T06:07:58.425Z,979.70
2022-09-27T06:09:58.419Z,979.70
2022-09-27T06:10:58.357Z,979.72
2022-09-27T06:11:58.385Z,979.65
2022-09-27T06:12:58.354Z,979.74
2022-09-27T06:13:58.365Z,979.70
2022-09-27T06:14:58.329Z,979.76
2022-09-27T06:15:58.309Z,979.79
2022-09-27T06:16:58.323Z,979.72
2022-09-27T06:17:58.315Z,979.84
2022-09-27T06:18:58.267Z,979.76
2022-09-27T06:19:58.321Z,979.85
2022-09-27T06:20:58.247Z,979.81
2022-09-27T06:21:58.245Z,979.86
2022-09-27T06:22:58.235Z,979.79
2022-09-27T06:23:58.227Z,979.90
2022-09-27T06:24:58.242Z,979.90
2022-09-27T06:25:58.205Z,979.91
2022-09-27T06:26:58.177Z,979.96
2022-09-27T06:27:58.190Z,979.96
2022-09-27T06:28:58.162Z,979.95
2022-09-27T06:29:58.155Z,979.95
2022-09-27T06:30:58.242Z,979.92
2022-09-27T06:31:58.151Z,979.94
2022-09-27T06:32:58.111Z,979.89
2022-09-27T06:33:58.106Z,979.95
2022-09-27T06:34:58.085Z,979.95
2022-09-27T06:35:58.107Z,979.87
2022-09-27T06:36:58.066Z,979.96
2022-09-27T06:37:58.046Z,979.97
2022-09-27T06:38:58.075Z,980.02
2022-09-27T06:39:58.054Z,979.99
2022-09-27T06:40:58.128Z,979.99
2022-09-27T06:41:58.038Z,980.01
2022-09-27T06:42:57.996Z,980.03
2022-09-27T06:43:58.020Z,980.01
2022-09-27T06:44:57.975Z,980.05
2022-09-27T06:45:58.040Z,980.13
2022-09-27T06:46:57.974Z,980.16
2022-09-27T06:47:57.956Z,980.16
2022-09-27T06:48:57.976Z,980.18
2022-09-27T06:49:57.934Z,980.18
2022-09-27T06:50:57.970Z,980.23
2022-09-27T06:51:57.916Z,980.28
2022-09-27T06:52:57.886Z,980.19
2022-09-27T06:53:57.903Z,980.27
2022-09-27T06:54:57.855Z,980.21
2022-09-27T06:55:57.846Z,980.27
2022-09-27T06:57:02.241Z,980.27
2022-09-27T06:57:57.824Z,980.27
2022-09-27T06:58:57.834Z,980.34
2022-09-27T06:59:57.853Z,980.32
2022-09-27T07:00:57.815Z,980.41
2022-09-27T07:01:57.840Z,980.41
2022-09-27T07:02:57.776Z,980.43
2022-09-27T07:03:57.756Z,980.48
2022-09-27T07:04:57.746Z,980.44
2022-09-27T07:05:58.024Z,980.50
2022-09-27T07:06:57.727Z,980.56
2022-09-27T07:07:57.732Z,980.55
2022-09-27T07:08:57.725Z,980.55
2022-09-27T07:09:57.683Z,980.52
2022-09-27T07:10:57.677Z,980.52
2022-09-27T07:11:57.700Z,980.61
2022-09-27T07:12:57.657Z,980.69
2022-09-27T07:13:57.637Z,980.67
2022-09-27T07:14:57.625Z,980.68
2022-09-27T07:15:57.606Z,980.71
2022-09-27T07:16:57.657Z,980.74
2022-09-27T07:17:57.639Z,980.74
2022-09-27T07:18:57.586Z,980.75
2022-09-27T07:19:57.715Z,980.77
2022-09-27T07:21:00.275Z,980.80
2022-09-27T07:21:57.546Z,980.76
2022-09-27T07:22:57.582Z,980.79
2022-09-27T07:23:57.578Z,980.86
2022-09-27T07:24:57.505Z,980.84
2022-09-27T07:25:57.497Z,980.80
2022-09-27T07:26:57.497Z,980.82
2022-09-27T07:27:57.505Z,980.75
2022-09-27T07:28:57.496Z,980.81
2022-09-27T07:29:57.458Z,980.83
2022-09-27T07:30:57.533Z,980.76
2022-09-27T07:31:57.426Z,980.75
2022-09-27T07:32:57.424Z,980.78
2022-09-27T07:33:57.429Z,980.71
2022-09-27T07:34:57.418Z,980.77
2022-09-27T07:35:57.387Z,980.75
2022-09-27T07:36:57.426Z,980.68
2022-09-27T07:37:57.391Z,980.70
2022-09-27T07:38:57.389Z,980.67
2022-09-27T07:39:57.368Z,980.76
2022-09-27T07:40:57.413Z,980.74
2022-09-27T07:41:57.378Z,980.69
2022-09-27T07:42:57.307Z,980.78
2022-09-27T07:43:57.300Z,980.78
2022-09-27T07:44:57.285Z,980.74
2022-09-27T07:45:57.312Z,980.75
2022-09-27T07:46:57.288Z,980.70
2022-09-27T07:47:57.246Z,980.78
2022-09-27T07:48:57.246Z,980.83
2022-09-27T07:49:57.233Z,980.87
2022-09-27T07:50:57.217Z,980.86
2022-09-27T07:51:57.199Z,980.95
2022-09-27T07:52:57.221Z,980.96
2022-09-27T07:53:57.178Z,981.01
2022-09-27T07:54:57.176Z,981.04
2022-09-27T07:55:57.155Z,980.98
2022-09-27T07:56:57.146Z,981.01
2022-09-27T07:57:57.144Z,981.09
2022-09-27T07:58:57.186Z,981.13
2022-09-27T07:59:57.117Z,981.14
2022-09-27T08:00:57.177Z,981.11
2022-09-27T08:01:57.123Z,981.16
2022-09-27T08:02:57.076Z,981.11
2022-09-27T08:03:57.073Z,981.24
2022-09-27T08:04:57.067Z,981.26
2022-09-27T08:05:57.036Z,981.28
2022-09-27T08:06:57.037Z,981.25
2022-09-27T08:07:57.017Z,981.30
2022-09-27T08:08:57.047Z,981.33
2022-09-27T08:09:57.037Z,981.33
2022-09-27T08:10:56.989Z,981.33
2022-09-27T08:11:56.978Z,981.39
2022-09-27T08:12:57.001Z,981.39
2022-09-27T08:13:56.947Z,981.40
2022-09-27T08:14:56.948Z,981.41
2022-09-27T08:15:56.947Z,981.44
2022-09-27T08:16:56.915Z,981.41
2022-09-27T08:17:56.907Z,981.40
2022-09-27T08:18:56.909Z,981.39
2022-09-27T08:19:56.886Z,981.40
2022-09-27T08:20:56.867Z,981.39
2022-09-27T08:21:58.923Z,981.44
2022-09-27T08:22:56.881Z,981.43
2022-09-27T08:23:56.836Z,981.50
2022-09-27T08:24:56.843Z,981.43
2022-09-27T08:25:56.810Z,981.50
2022-09-27T08:26:56.799Z,981.54
2022-09-27T08:27:56.812Z,981.54
2022-09-27T08:28:56.802Z,981.54
2022-09-27T08:29:56.820Z,981.60
2022-09-27T08:30:56.762Z,981.59
2022-09-27T08:31:56.770Z,981.51
2022-09-27T08:32:56.745Z,981.58
2022-09-27T08:33:56.737Z,981.55
2022-09-27T08:34:56.723Z,981.57
2022-09-27T08:35:56.697Z,981.62
2022-09-27T08:36:56.690Z,981.60
2022-09-27T08:37:56.682Z,981.67
2022-09-27T08:38:56.690Z,981.63
2022-09-27T08:39:56.657Z,981.67
2022-09-27T08:40:56.669Z,981.71
2022-09-27T08:41:56.642Z,981.72
2022-09-27T08:42:56.623Z,981.73
2022-09-27T08:43:56.619Z,981.75
2022-09-27T08:45:00.959Z,981.74
2022-09-27T08:45:57.631Z,981.76
2022-09-27T08:46:56.569Z,981.79
2022-09-27T08:47:56.560Z,981.80
2022-09-27T08:48:56.550Z,981.84
2022-09-27T08:49:56.530Z,981.86
2022-09-27T08:50:56.553Z,981.83
2022-09-27T08:51:56.514Z,981.86
2022-09-27T08:52:57.110Z,981.80
2022-09-27T08:53:56.492Z,981.89
2022-09-27T08:54:56.521Z,981.88
2022-09-27T08:55:56.479Z,981.86
2022-09-27T08:56:56.470Z,981.93
2022-09-27T08:57:56.440Z,981.90
2022-09-27T08:58:56.459Z,981.91
2022-09-27T08:59:56.432Z,981.92
2022-09-27T09:00:56.438Z,981.86
2022-09-27T09:01:59.676Z,981.89
2022-09-27T09:02:56.389Z,981.94
2022-09-27T09:03:56.372Z,981.92
2022-09-27T09:04:56.368Z,981.91
2022-09-27T09:05:56.371Z,981.89
2022-09-27T09:06:56.341Z,981.93
2022-09-27T09:07:56.354Z,981.89
2022-09-27T09:08:56.320Z,981.88
2022-09-27T09:10:03.346Z,981.86
2022-09-27T09:10:56.456Z,981.93
2022-09-27T09:11:56.276Z,981.90
2022-09-27T09:12:56.265Z,981.87
2022-09-27T09:13:56.285Z,981.85
2022-09-27T09:14:56.246Z,981.90
2022-09-27T09:15:56.239Z,981.83
2022-09-27T09:16:56.226Z,981.94
2022-09-27T09:17:56.215Z,981.93
2022-09-27T09:18:56.210Z,981.88
2022-09-27T09:19:56.207Z,981.94
2022-09-27T09:20:56.186Z,981.88
2022-09-27T09:21:56.166Z,981.95
2022-09-27T09:22:56.166Z,981.88
2022-09-27T09:23:56.146Z,981.86
2022-09-27T09:24:56.127Z,981.85
2022-09-27T09:25:56.137Z,981.92
2022-09-27T09:26:57.691Z,981.88
2022-09-27T09:28:01.465Z,981.84
2022-09-27T09:28:57.097Z,981.89
2022-09-27T09:29:56.078Z,981.89
2022-09-27T09:30:56.094Z,981.86
2022-09-27T09:31:56.103Z,981.88
2022-09-27T09:32:56.047Z,981.85
2022-09-27T09:33:56.018Z,981.91
2022-09-27T09:34:56.020Z,981.92
2022-09-27T09:35:56.008Z,981.89
2022-09-27T09:36:56.020Z,982.00
2022-09-27T09:37:55.978Z,981.93
2022-09-27T09:38:55.970Z,981.93
2022-09-27T09:39:55.966Z,981.99
2022-09-27T09:40:55.963Z,981.88
2022-09-27T09:41:55.936Z,981.94
2022-09-27T09:42:55.949Z,981.92
2022-09-27T09:43:55.911Z,981.89
2022-09-27T09:44:55.922Z,981.94
2022-09-27T09:45:55.906Z,981.88
2022-09-27T09:46:55.881Z,981.85
2022-09-27T09:47:55.869Z,981.89
2022-09-27T09:48:55.879Z,981.90
2022-09-27T09:49:55.840Z,981.91
2022-09-27T09:50:55.841Z,981.88
2022-09-27T09:51:55.824Z,981.90
2022-09-27T09:52:55.810Z,981.80
2022-09-27T09:53:55.790Z,981.82
2022-09-27T09:54:55.809Z,981.88
2022-09-27T09:55:55.781Z,981.82
2022-09-27T09:56:55.764Z,981.81
2022-09-27T09:57:55.755Z,981.85
2022-09-27T09:58:55.741Z,981.85
2022-09-27T09:59:55.729Z,981.80
2022-09-27T10:00:55.775Z,981.87
2022-09-27T10:01:55.749Z,981.82
2022-09-27T10:02:55.700Z,981.84
2022-09-27T10:03:55.682Z,981.88
2022-09-27T10:04:55.674Z,981.88
2022-09-27T10:05:55.652Z,981.91
2022-09-27T10:06:55.660Z,981.84
2022-09-27T10:07:55.632Z,981.88
2022-09-27T10:08:55.623Z,981.90
2022-09-27T10:09:55.612Z,981.86
2022-09-27T10:10:55.604Z,981.93
2022-09-27T10:11:55.611Z,981.87
2022-09-27T10:12:55.572Z,981.87
2022-09-27T10:13:55.562Z,981.84
2022-09-27T10:14:55.561Z,981.85
2022-09-27T10:15:55.545Z,981.80
2022-09-27T10:16:55.532Z,981.83
2022-09-27T10:17:55.551Z,981.78
2022-09-27T10:18:55.513Z,981.80
2022-09-27T10:19:55.497Z,981.79
2022-09-27T10:20:55.495Z,981.81
2022-09-27T10:21:55.471Z,981.84
2022-09-27T10:22:55.462Z,981.75
2022-09-27T10:23:55.504Z,981.77
2022-09-27T10:24:55.442Z,981.76
2022-09-27T10:25:55.434Z,981.76
2022-09-27T10:26:55.414Z,981.77
2022-09-27T10:27:55.442Z,981.77
2022-09-27T10:28:55.393Z,981.75
2022-09-27T10:29:55.434Z,981.71
2022-09-27T10:30:55.373Z,981.69
2022-09-27T10:31:55.403Z,981.70
2022-09-27T10:32:55.360Z,981.65
2022-09-27T10:33:55.333Z,981.71
2022-09-27T10:34:55.324Z,981.72
2022-09-27T10:35:55.332Z,981.69
2022-09-27T10:36:55.314Z,981.67
2022-09-27T10:37:55.297Z,981.66
2022-09-27T10:38:55.281Z,981.74
2022-09-27T10:39:55.264Z,981.65
2022-09-27T10:40:55.355Z,981.70
2022-09-27T10:41:55.243Z,981.68
2022-09-27T10:42:55.233Z,981.67
2022-09-27T10:43:55.223Z,981.63
2022-09-27T10:44:55.213Z,981.68
2022-09-27T10:45:55.237Z,981.62
2022-09-27T10:46:55.236Z,981.61
2022-09-27T10:47:55.176Z,981.71
2022-09-27T10:48:55.174Z,981.68
2022-09-27T10:49:55.164Z,981.67
2022-09-27T10:50:58.712Z,981.70
2022-09-27T10:51:55.128Z,981.65
2022-09-27T10:52:55.244Z,981.66
2022-09-27T10:53:55.104Z,981.64
2022-09-27T10:54:55.094Z,981.63
2022-09-27T10:55:55.084Z,981.67
2022-09-27T10:56:55.067Z,981.68
2022-09-27T10:57:55.068Z,981.66
2022-09-27T10:58:55.235Z,981.68
2022-09-27T10:59:55.043Z,981.69
2022-09-27T11:00:55.060Z,981.64
2022-09-27T11:01:55.015Z,981.62
2022-09-27T11:02:55.007Z,981.65
2022-09-27T11:03:54.996Z,981.60
2022-09-27T11:04:55.054Z,981.62
2022-09-27T11:05:54.966Z,981.58
2022-09-27T11:06:54.955Z,981.54
2022-09-27T11:07:54.946Z,981.59
2022-09-27T11:08:54.939Z,981.58
2022-09-27T11:09:54.916Z,981.55
2022-09-27T11:10:54.926Z,981.58
2022-09-27T11:11:54.897Z,981.59
2022-09-27T11:12:54.886Z,981.50
2022-09-27T11:13:54.880Z,981.53
2022-09-27T11:14:54.858Z,981.51
2022-09-27T11:15:54.911Z,981.55
2022-09-27T11:16:54.848Z,981.56
2022-09-27T11:17:54.827Z,981.55
2022-09-27T11:18:54.817Z,981.55
2022-09-27T11:19:54.807Z,981.53
2022-09-27T11:20:54.796Z,981.51
2022-09-27T11:21:54.807Z,981.49
2022-09-27T11:22:54.767Z,981.59
2022-09-27T11:23:54.765Z,981.52
2022-09-27T11:24:54.749Z,981.47
2022-09-27T11:25:54.738Z,981.57
2022-09-27T11:26:54.734Z,981.60
2022-09-27T11:27:54.738Z,981.58
2022-09-27T11:28:54.699Z,981.57
2022-09-27T11:29:54.696Z,981.49
2022-09-27T11:30:54.688Z,981.54
2022-09-27T11:31:54.714Z,981.55
2022-09-27T11:32:54.658Z,981.56
2022-09-27T11:33:54.698Z,981.54
2022-09-27T11:34:54.643Z,981.55
2022-09-27T11:35:54.639Z,981.47
2022-09-27T11:36:54.846Z,981.46
2022-09-27T11:37:54.611Z,981.48
2022-09-27T11:38:55.758Z,981.44
2022-09-27T11:39:54.608Z,981.39
2022-09-27T11:40:54.607Z,981.39
2022-09-27T11:41:54.561Z,981.35
2022-09-27T11:42:54.540Z,981.38
2022-09-27T11:43:54.540Z,981.32
2022-09-27T11:45:19.536Z,981.32
2022-09-27T11:46:15.419Z,981.33
2022-09-27T11:46:55.553Z,981.30
2022-09-27T11:47:54.642Z,981.30
2022-09-27T11:48:54.471Z,981.29
2022-09-27T11:49:54.471Z,981.26
2022-09-27T11:50:54.452Z,981.27
2022-09-27T11:51:54.463Z,981.19
2022-09-27T11:52:54.430Z,981.22
2022-09-27T11:53:54.559Z,981.23
2022-09-27T11:54:54.412Z,981.24
2022-09-27T11:55:54.401Z,981.13
2022-09-27T11:56:54.412Z,981.15
2022-09-27T11:57:54.384Z,981.13
2022-09-27T11:58:54.375Z,981.12
2022-09-27T11:59:54.364Z,981.18
2022-09-27T12:00:54.341Z,981.22
2022-09-27T12:01:54.368Z,981.15
2022-09-27T12:02:54.465Z,981.27
2022-09-27T12:03:54.321Z,981.19
2022-09-27T12:04:54.301Z,981.22
2022-09-27T12:05:58.129Z,981.20
2022-09-27T12:06:54.274Z,981.22
2022-09-27T12:07:54.272Z,981.27
2022-09-27T12:08:54.272Z,981.33
2022-09-27T12:09:54.244Z,981.22
2022-09-27T12:10:54.233Z,981.16
2022-09-27T12:11:54.220Z,981.24
2022-09-27T12:12:54.204Z,981.18
2022-09-27T12:13:54.206Z,981.15
2022-09-27T12:14:54.212Z,981.14
2022-09-27T12:15:54.228Z,981.13
2022-09-27T12:16:54.161Z,981.14
2022-09-27T12:17:54.153Z,981.15
2022-09-27T12:18:54.143Z,981.22
2022-09-27T12:19:54.137Z,981.19
2022-09-27T12:20:54.135Z,981.18
2022-09-27T12:21:54.103Z,981.21
2022-09-27T12:22:59.176Z,981.25
2022-09-27T12:23:55.084Z,981.27
2022-09-27T12:24:54.074Z,981.28
2022-09-27T12:25:54.083Z,981.24
2022-09-27T12:26:54.049Z,981.19
2022-09-27T12:27:54.039Z,981.22
2022-09-27T12:28:54.023Z,981.17